sensor_id;sensor_type;location;lat;lon;timestamp;pressure;altitude;pressure_sealevel;temperature;humidity
28628;BME280;15815;46.760;19.604;2023-03-31T00:00:31;99969.63;;;12.23;95.41
28628;BME280;15815;46.760;19.604;2023-03-31T00:02:57;99992.44;;;12.32;96.08
28628;BME280;15815;46.760;19.604;2023-03-31T00:05:29;99980.19;;;12.15;96.89
28628;BME280;15815;46.760;19.604;2023-03-31T00:08:01;99999.78;;;12.26;98.10
28628;BME280;15815;46.760;19.604;2023-03-31T00:10:31;100015.38;;;12.34;97.50
28628;BME280;15815;46.760;19.604;2023-03-31T00:12:57;99995.09;;;12.16;96.89
28628;BME280;15815;46.760;19.604;2023-03-31T00:15:23;100016.69;;;12.26;97.53
28628;BME280;15815;46.760;19.604;2023-03-31T00:17:49;100009.44;;;12.25;97.95
28628;BME280;15815;46.760;19.604;2023-03-31T00:20:14;100002.25;;;12.20;97.65
28628;BME280;15815;46.760;19.604;2023-03-31T00:22:40;100004.22;;;12.23;97.28
28628;BME280;15815;46.760;19.604;2023-03-31T00:25:07;99995.03;;;12.19;97.66
28628;BME280;15815;46.760;19.604;2023-03-31T00:27:40;100000.25;;;12.21;97.74
28628;BME280;15815;46.760;19.604;2023-03-31T00:30:06;99976.69;;;12.07;97.52
28628;BME280;15815;46.760;19.604;2023-03-31T00:32:32;99967.88;;;12.02;96.37
28628;BME280;15815;46.760;19.604;2023-03-31T00:34:57;99969.47;;;12.06;97.70
28628;BME280;15815;46.760;19.604;2023-03-31T00:37:23;99986.25;;;12.14;98.79
28628;BME280;15815;46.760;19.604;2023-03-31T00:39:49;99982.16;;;12.18;96.12
28628;BME280;15815;46.760;19.604;2023-03-31T00:42:14;99955.03;;;12.01;97.87
28628;BME280;15815;46.760;19.604;2023-03-31T00:48:14;99968.25;;;12.07;96.70
28628;BME280;15815;46.760;19.604;2023-03-31T00:50:46;99999.41;;;12.24;96.36
28628;BME280;15815;46.760;19.604;2023-03-31T00:53:15;99973.44;;;12.09;96.72
28628;BME280;15815;46.760;19.604;2023-03-31T00:55:46;99973.41;;;12.13;96.00
28628;BME280;15815;46.760;19.604;2023-03-31T00:58:15;99979.78;;;12.17;96.14
28628;BME280;15815;46.760;19.604;2023-03-31T01:00:42;99976.69;;;12.07;96.40
28628;BME280;15815;46.760;19.604;2023-03-31T01:03:08;99971.97;;;11.97;96.83
28628;BME280;15815;46.760;19.604;2023-03-31T01:05:46;99981.97;;;12.02;97.55
28628;BME280;15815;46.760;19.604;2023-03-31T01:08:17;99976.50;;;11.91;98.13
28628;BME280;15815;46.760;19.604;2023-03-31T01:10:48;99974.53;;;11.88;97.52
28628;BME280;15815;46.760;19.604;2023-03-31T01:13:15;99984.09;;;11.94;96.86
28628;BME280;15815;46.760;19.604;2023-03-31T01:15:44;99986.91;;;11.94;98.53
28628;BME280;15815;46.760;19.604;2023-03-31T01:18:13;99993.66;;;12.00;98.33
28628;BME280;15815;46.760;19.604;2023-03-31T01:43:22;99972.22;;;11.80;99.13
28628;BME280;15815;46.760;19.604;2023-03-31T01:46:37;99975.81;;;11.76;99.64
28628;BME280;15815;46.760;19.604;2023-03-31T01:52:45;99977.09;;;11.72;98.77
28628;BME280;15815;46.760;19.604;2023-03-31T01:54:48;99967.44;;;11.73;99.27
28628;BME280;15815;46.760;19.604;2023-03-31T01:57:48;99967.00;;;11.74;99.70
28628;BME280;15815;46.760;19.604;2023-03-31T02:00:19;99965.38;;;11.77;97.82
28628;BME280;15815;46.760;19.604;2023-03-31T02:06:15;99968.97;;;11.77;98.76
28628;BME280;15815;46.760;19.604;2023-03-31T02:08:43;99973.00;;;11.76;98.85
28628;BME280;15815;46.760;19.604;2023-03-31T02:11:11;99955.50;;;11.62;98.35
28628;BME280;15815;46.760;19.604;2023-03-31T02:13:39;99966.22;;;11.74;97.75
28628;BME280;15815;46.760;19.604;2023-03-31T02:16:09;99965.41;;;11.73;97.46
28628;BME280;15815;46.760;19.604;2023-03-31T02:18:38;99957.84;;;11.67;98.27
28628;BME280;15815;46.760;19.604;2023-03-31T02:21:06;99959.03;;;11.69;97.39
28628;BME280;15815;46.760;19.604;2023-03-31T02:23:36;99937.97;;;11.51;97.80
28628;BME280;15815;46.760;19.604;2023-03-31T02:26:09;99977.09;;;11.72;97.79
28628;BME280;15815;46.760;19.604;2023-03-31T02:28:37;99940.78;;;11.51;97.76
28628;BME280;15815;46.760;19.604;2023-03-31T02:33:32;99951.19;;;11.54;97.19
28628;BME280;15815;46.760;19.604;2023-03-31T02:35:59;99948.81;;;11.49;97.21
28628;BME280;15815;46.760;19.604;2023-03-31T02:38:25;99963.25;;;11.54;97.81
28628;BME280;15815;46.760;19.604;2023-03-31T02:40:51;99955.59;;;11.55;97.79
28628;BME280;15815;46.760;19.604;2023-03-31T02:43:17;99955.59;;;11.55;96.98
28628;BME280;15815;46.760;19.604;2023-03-31T02:45:50;99955.59;;;11.55;97.02
28628;BME280;15815;46.760;19.604;2023-03-31T02:48:26;99968.56;;;11.45;98.28
28628;BME280;15815;46.760;19.604;2023-03-31T02:59:12;99958.34;;;11.24;99.37
28628;BME280;15815;46.760;19.604;2023-03-31T03:01:55;99958.72;;;11.26;97.55
28628;BME280;15815;46.760;19.604;2023-03-31T03:07:07;99961.59;;;11.19;98.12
28628;BME280;15815;46.760;19.604;2023-03-31T03:12:52;99966.53;;;11.08;98.64
28628;BME280;15815;46.760;19.604;2023-03-31T03:15:31;99961.38;;;11.03;98.04
28628;BME280;15815;46.760;19.604;2023-03-31T03:17:58;99951.78;;;10.97;97.57
28628;BME280;15815;46.760;19.604;2023-03-31T03:20:24;99955.41;;;10.97;98.07
28628;BME280;15815;46.760;19.604;2023-03-31T03:22:49;99949.81;;;10.90;98.16
28628;BME280;15815;46.760;19.604;2023-03-31T03:25:17;99935.91;;;10.76;98.64
28628;BME280;15815;46.760;19.604;2023-03-31T03:27:43;99965.13;;;10.86;98.86
28628;BME280;15815;46.760;19.604;2023-03-31T03:30:10;99951.59;;;10.73;98.33
28628;BME280;15815;46.760;19.604;2023-03-31T03:32:37;99960.41;;;10.75;99.07
28628;BME280;15815;46.760;19.604;2023-03-31T03:35:04;99942.81;;;10.64;98.72
28628;BME280;15815;46.760;19.604;2023-03-31T03:37:30;99942.84;;;10.61;99.00
28628;BME280;15815;46.760;19.604;2023-03-31T03:39:56;99963.66;;;10.70;98.54
28628;BME280;15815;46.760;19.604;2023-03-31T03:42:22;99964.47;;;10.67;97.37
28628;BME280;15815;46.760;19.604;2023-03-31T03:44:48;99960.50;;;10.61;96.85
28628;BME280;15815;46.760;19.604;2023-03-31T03:47:14;99958.09;;;10.63;95.97
28628;BME280;15815;46.760;19.604;2023-03-31T03:49:40;99951.34;;;10.53;95.77
28628;BME280;15815;46.760;19.604;2023-03-31T03:52:05;99945.31;;;10.55;96.07
28628;BME280;15815;46.760;19.604;2023-03-31T03:54:31;99940.19;;;10.43;96.92
28628;BME280;15815;46.760;19.604;2023-03-31T03:56:56;99938.59;;;10.42;96.98
28628;BME280;15815;46.760;19.604;2023-03-31T03:59:22;99951.03;;;10.44;98.52
28628;BME280;15815;46.760;19.604;2023-03-31T04:01:48;99921.44;;;10.26;99.05
28628;BME280;15815;46.760;19.604;2023-03-31T04:04:14;99935.03;;;10.34;99.10
28628;BME280;15815;46.760;19.604;2023-03-31T04:06:40;99928.66;;;10.27;98.99
28628;BME280;15815;46.760;19.604;2023-03-31T04:09:06;99930.66;;;10.26;99.81
28628;BME280;15815;46.760;19.604;2023-03-31T04:11:32;99908.69;;;10.07;100.00
28628;BME280;15815;46.760;19.604;2023-03-31T04:14:01;99935.53;;;10.15;100.00
28628;BME280;15815;46.760;19.604;2023-03-31T04:16:27;99917.53;;;10.05;99.19
28628;BME280;15815;46.760;19.604;2023-03-31T04:18:53;99945.53;;;10.19;98.88
28628;BME280;15815;46.760;19.604;2023-03-31T04:21:20;99941.16;;;10.15;99.52
28628;BME280;15815;46.760;19.604;2023-03-31T04:23:45;99931.56;;;10.05;99.58
28628;BME280;15815;46.760;19.604;2023-03-31T04:26:13;99916.78;;;9.98;99.41
28628;BME280;15815;46.760;19.604;2023-03-31T04:28:40;99918.38;;;9.99;98.40
28628;BME280;15815;46.760;19.604;2023-03-31T04:31:05;99917.59;;;9.95;99.16
28628;BME280;15815;46.760;19.604;2023-03-31T04:33:31;99912.84;;;9.84;99.46
28628;BME280;15815;46.760;19.604;2023-03-31T04:35:58;99936.03;;;9.99;98.07
28628;BME280;15815;46.760;19.604;2023-03-31T04:38:24;99919.66;;;9.87;97.53
28628;BME280;15815;46.760;19.604;2023-03-31T04:40:51;99906.44;;;9.80;97.29
28628;BME280;15815;46.760;19.604;2023-03-31T04:43:18;99918.44;;;9.88;96.88
28628;BME280;15815;46.760;19.604;2023-03-31T04:45:44;99926.88;;;9.88;98.80
28628;BME280;15815;46.760;19.604;2023-03-31T04:48:10;99928.06;;;9.90;100.00
28628;BME280;15815;46.760;19.604;2023-03-31T04:50:37;99906.03;;;9.82;100.00
28628;BME280;15815;46.760;19.604;2023-03-31T04:53:03;99900.75;;;9.95;99.36
28628;BME280;15815;46.760;19.604;2023-03-31T04:55:29;99923.91;;;10.16;97.53
28628;BME280;15815;46.760;19.604;2023-03-31T04:57:55;99911.84;;;10.23;98.21
28628;BME280;15815;46.760;19.604;2023-03-31T05:00:22;99917.28;;;10.48;97.21
28628;BME280;15815;46.760;19.604;2023-03-31T05:02:48;99923.09;;;10.71;95.76
28628;BME280;15815;46.760;19.604;2023-03-31T05:05:13;99936.91;;;11.00;95.58
28628;BME280;15815;46.760;19.604;2023-03-31T05:07:40;99909.41;;;11.14;95.30
28628;BME280;15815;46.760;19.604;2023-03-31T05:10:06;99931.19;;;11.44;94.82
28628;BME280;15815;46.760;19.604;2023-03-31T05:12:36;99918.53;;;11.60;95.24
28628;BME280;15815;46.760;19.604;2023-03-31T05:15:04;99929.00;;;11.93;94.78
28628;BME280;15815;46.760;19.604;2023-03-31T05:17:33;99940.09;;;12.31;93.75
28628;BME280;15815;46.760;19.604;2023-03-31T05:20:03;99936.13;;;12.79;91.39
28628;BME280;15815;46.760;19.604;2023-03-31T05:22:28;99915.16;;;13.26;91.12
28628;BME280;15815;46.760;19.604;2023-03-31T05:24:57;99923.84;;;13.75;89.90
28628;BME280;15815;46.760;19.604;2023-03-31T05:27:22;99898.69;;;14.17;90.18
28628;BME280;15815;46.760;19.604;2023-03-31T05:29:48;99916.09;;;14.68;88.04
28628;BME280;15815;46.760;19.604;2023-03-31T05:32:13;99902.88;;;15.10;85.24
28628;BME280;15815;46.760;19.604;2023-03-31T05:34:39;99911.88;;;15.50;86.01
28628;BME280;15815;46.760;19.604;2023-03-31T05:37:06;99917.44;;;15.95;84.58
28628;BME280;15815;46.760;19.604;2023-03-31T05:39:31;99918.16;;;16.37;82.02
28628;BME280;15815;46.760;19.604;2023-03-31T05:41:59;99894.00;;;16.33;80.96
28628;BME280;15815;46.760;19.604;2023-03-31T05:44:25;99898.31;;;16.76;79.43
28628;BME280;15815;46.760;19.604;2023-03-31T05:46:52;99901.63;;;17.09;75.88
28628;BME280;15815;46.760;19.604;2023-03-31T05:49:18;99900.66;;;17.46;74.32
28628;BME280;15815;46.760;19.604;2023-03-31T05:51:44;99885.69;;;17.68;73.71
28628;BME280;15815;46.760;19.604;2023-03-31T05:54:09;99886.84;;;18.01;72.13
28628;BME280;15815;46.760;19.604;2023-03-31T05:56:39;99874.69;;;18.41;70.05
28628;BME280;15815;46.760;19.604;2023-03-31T05:59:04;99883.66;;;18.79;68.98
28628;BME280;15815;46.760;19.604;2023-03-31T06:01:32;99888.78;;;19.49;66.51
28628;BME280;15815;46.760;19.604;2023-03-31T06:03:57;99876.44;;;19.52;62.38
28628;BME280;15815;46.760;19.604;2023-03-31T06:06:23;99891.94;;;19.69;61.24
28628;BME280;15815;46.760;19.604;2023-03-31T06:08:48;99881.88;;;20.10;62.14
28628;BME280;15815;46.760;19.604;2023-03-31T06:11:16;99874.84;;;20.20;60.47
28628;BME280;15815;46.760;19.604;2023-03-31T06:13:44;99893.63;;;20.45;58.40
28628;BME280;15815;46.760;19.604;2023-03-31T06:16:11;99864.13;;;20.48;57.44
28628;BME280;15815;46.760;19.604;2023-03-31T06:18:39;99889.16;;;21.10;56.42
28628;BME280;15815;46.760;19.604;2023-03-31T06:21:05;99901.03;;;21.33;56.56
28628;BME280;15815;46.760;19.604;2023-03-31T06:26:02;99877.84;;;21.84;54.11
28628;BME280;15815;46.760;19.604;2023-03-31T06:28:31;99896.69;;;22.35;51.33
28628;BME280;15815;46.760;19.604;2023-03-31T06:31:17;99879.56;;;22.20;51.05
28628;BME280;15815;46.760;19.604;2023-03-31T06:33:45;99899.50;;;22.64;51.06
28628;BME280;15815;46.760;19.604;2023-03-31T06:36:15;99892.47;;;23.00;50.70
28628;BME280;15815;46.760;19.604;2023-03-31T06:38:41;99913.63;;;23.43;49.74
28628;BME280;15815;46.760;19.604;2023-03-31T06:41:08;99909.16;;;23.83;49.08
28628;BME280;15815;46.760;19.604;2023-03-31T06:43:35;99894.31;;;23.44;49.25
28628;BME280;15815;46.760;19.604;2023-03-31T06:46:01;99905.31;;;24.49;47.57
28628;BME280;15815;46.760;19.604;2023-03-31T06:48:28;99896.91;;;24.83;46.92
28628;BME280;15815;46.760;19.604;2023-03-31T06:50:57;99892.25;;;24.91;46.03
28628;BME280;15815;46.760;19.604;2023-03-31T06:53:24;99914.97;;;25.37;44.93
28628;BME280;15815;46.760;19.604;2023-03-31T06:55:49;99905.47;;;25.20;45.42
28628;BME280;15815;46.760;19.604;2023-03-31T06:58:15;99903.59;;;25.71;44.96
28628;BME280;15815;46.760;19.604;2023-03-31T07:03:05;99888.47;;;26.21;43.17
28628;BME280;15815;46.760;19.604;2023-03-31T07:05:31;99909.72;;;26.68;42.10
28628;BME280;15815;46.760;19.604;2023-03-31T07:07:58;99899.78;;;26.46;40.87
28628;BME280;15815;46.760;19.604;2023-03-31T07:10:26;99910.78;;;26.59;41.54
28628;BME280;15815;46.760;19.604;2023-03-31T07:12:52;99909.41;;;26.77;41.14
28628;BME280;15815;46.760;19.604;2023-03-31T07:15:17;99913.56;;;27.04;39.83
28628;BME280;15815;46.760;19.604;2023-03-31T07:17:43;99919.31;;;27.21;41.03
28628;BME280;15815;46.760;19.604;2023-03-31T07:20:17;99898.13;;;27.65;40.11
28628;BME280;15815;46.760;19.604;2023-03-31T07:22:44;99907.06;;;27.67;39.20
28628;BME280;15815;46.760;19.604;2023-03-31T07:25:12;99896.41;;;27.86;38.95
28628;BME280;15815;46.760;19.604;2023-03-31T07:27:38;99897.69;;;28.32;38.44
28628;BME280;15815;46.760;19.604;2023-03-31T07:30:06;99906.84;;;28.66;37.67
28628;BME280;15815;46.760;19.604;2023-03-31T07:32:32;99893.84;;;28.78;37.43
28628;BME280;15815;46.760;19.604;2023-03-31T07:34:58;99896.72;;;28.78;36.42
28628;BME280;15815;46.760;19.604;2023-03-31T07:37:24;99902.38;;;28.65;36.82
28628;BME280;15815;46.760;19.604;2023-03-31T07:39:50;99895.63;;;28.57;36.67
28628;BME280;15815;46.760;19.604;2023-03-31T07:42:15;99888.88;;;29.46;35.29
28628;BME280;15815;46.760;19.604;2023-03-31T07:44:41;99890.13;;;29.51;35.08
28628;BME280;15815;46.760;19.604;2023-03-31T07:47:07;99887.34;;;29.40;34.54
28628;BME280;15815;46.760;19.604;2023-03-31T07:49:33;99890.94;;;30.21;34.01
28628;BME280;15815;46.760;19.604;2023-03-31T07:52:00;99895.91;;;29.89;33.88
28628;BME280;15815;46.760;19.604;2023-03-31T07:54:26;99878.91;;;29.98;32.97
28628;BME280;15815;46.760;19.604;2023-03-31T07:56:52;99867.69;;;29.14;33.72
28628;BME280;15815;46.760;19.604;2023-03-31T07:59:18;99874.06;;;29.50;33.55
28628;BME280;15815;46.760;19.604;2023-03-31T08:01:44;99877.06;;;29.63;33.88
28628;BME280;15815;46.760;19.604;2023-03-31T08:04:11;99869.13;;;30.33;33.17
28628;BME280;15815;46.760;19.604;2023-03-31T08:06:37;99859.72;;;30.14;33.43
28628;BME280;15815;46.760;19.604;2023-03-31T08:09:04;99859.53;;;31.10;32.17
28628;BME280;15815;46.760;19.604;2023-03-31T08:11:30;99842.06;;;30.44;33.29
28628;BME280;15815;46.760;19.604;2023-03-31T08:13:56;99854.38;;;31.43;31.55
28628;BME280;15815;46.760;19.604;2023-03-31T08:16:21;99851.34;;;32.16;30.91
28628;BME280;15815;46.760;19.604;2023-03-31T08:18:47;99856.72;;;31.44;30.87
28628;BME280;15815;46.760;19.604;2023-03-31T08:21:13;99852.72;;;30.81;32.37
28628;BME280;15815;46.760;19.604;2023-03-31T08:23:38;99842.56;;;31.75;31.32
28628;BME280;15815;46.760;19.604;2023-03-31T08:28:33;99835.03;;;31.45;31.31
28628;BME280;15815;46.760;19.604;2023-03-31T08:31:07;99830.97;;;31.95;30.15
28628;BME280;15815;46.760;19.604;2023-03-31T08:33:33;99818.50;;;31.53;30.53
28628;BME280;15815;46.760;19.604;2023-03-31T08:36:03;99829.09;;;32.40;29.31
28628;BME280;15815;46.760;19.604;2023-03-31T08:38:30;99819.78;;;32.91;28.53
28628;BME280;15815;46.760;19.604;2023-03-31T08:41:00;99816.53;;;33.02;29.14
28628;BME280;15815;46.760;19.604;2023-03-31T08:43:32;99837.00;;;33.17;28.63
28628;BME280;15815;46.760;19.604;2023-03-31T08:46:00;99828.00;;;32.50;29.37
28628;BME280;15815;46.760;19.604;2023-03-31T08:48:29;99830.66;;;32.41;29.16
28628;BME280;15815;46.760;19.604;2023-03-31T08:51:13;99804.78;;;32.86;28.71
28628;BME280;15815;46.760;19.604;2023-03-31T08:53:48;99794.59;;;33.01;27.62
28628;BME280;15815;46.760;19.604;2023-03-31T08:56:16;99806.97;;;33.89;27.05
28628;BME280;15815;46.760;19.604;2023-03-31T08:58:45;99799.72;;;33.67;27.74
28628;BME280;15815;46.760;19.604;2023-03-31T09:01:21;99817.47;;;33.84;27.85
28628;BME280;15815;46.760;19.604;2023-03-31T09:11:57;99793.25;;;34.35;26.23
28628;BME280;15815;46.760;19.604;2023-03-31T09:14:35;99803.00;;;33.63;26.31
28628;BME280;15815;46.760;19.604;2023-03-31T09:17:24;99791.06;;;34.28;25.88
28628;BME280;15815;46.760;19.604;2023-03-31T09:19:55;99781.53;;;33.89;26.51
28628;BME280;15815;46.760;19.604;2023-03-31T09:22:31;99774.34;;;34.21;26.33
28628;BME280;15815;46.760;19.604;2023-03-31T09:27:38;99761.19;;;33.38;26.22
28628;BME280;15815;46.760;19.604;2023-03-31T09:30:10;99760.41;;;32.94;26.47
28628;BME280;15815;46.760;19.604;2023-03-31T09:32:38;99746.50;;;32.43;26.71
28628;BME280;15815;46.760;19.604;2023-03-31T09:35:18;99751.00;;;34.44;25.41
28628;BME280;15815;46.760;19.604;2023-03-31T09:37:43;99738.53;;;33.82;25.26
28628;BME280;15815;46.760;19.604;2023-03-31T09:40:19;99742.84;;;33.89;25.99
28628;BME280;15815;46.760;19.604;2023-03-31T09:42:47;99722.06;;;33.85;25.65
28628;BME280;15815;46.760;19.604;2023-03-31T09:45:19;99725.75;;;33.93;25.09
28628;BME280;15815;46.760;19.604;2023-03-31T09:48:00;99717.19;;;33.79;24.80
28628;BME280;15815;46.760;19.604;2023-03-31T09:50:31;99702.81;;;33.00;26.07
28628;BME280;15815;46.760;19.604;2023-03-31T09:53:26;99700.13;;;32.73;26.30
28628;BME280;15815;46.760;19.604;2023-03-31T09:56:05;99700.19;;;31.33;26.65
28628;BME280;15815;46.760;19.604;2023-03-31T09:58:39;99689.50;;;32.40;25.47
28628;BME280;15815;46.760;19.604;2023-03-31T10:01:09;99678.03;;;32.78;25.40
28628;BME280;15815;46.760;19.604;2023-03-31T10:03:51;99707.81;;;32.92;25.49
28628;BME280;15815;46.760;19.604;2023-03-31T10:06:22;99685.00;;;32.67;25.46
28628;BME280;15815;46.760;19.604;2023-03-31T10:09:03;99668.44;;;32.91;26.03
28628;BME280;15815;46.760;19.604;2023-03-31T10:14:42;99664.72;;;33.87;24.10
28628;BME280;15815;46.760;19.604;2023-03-31T10:17:26;99677.34;;;33.90;24.61
28628;BME280;15815;46.760;19.604;2023-03-31T10:19:58;99681.44;;;34.02;24.96
28628;BME280;15815;46.760;19.604;2023-03-31T10:22:29;99652.66;;;33.68;24.36
28628;BME280;15815;46.760;19.604;2023-03-31T10:25:09;99668.00;;;34.37;23.79
28628;BME280;15815;46.760;19.604;2023-03-31T10:27:53;99661.22;;;32.84;26.20
28628;BME280;15815;46.760;19.604;2023-03-31T10:30:27;99638.69;;;33.43;25.23
28628;BME280;15815;46.760;19.604;2023-03-31T10:33:05;99661.97;;;33.66;24.43
28628;BME280;15815;46.760;19.604;2023-03-31T10:35:33;99643.22;;;32.93;25.23
28628;BME280;15815;46.760;19.604;2023-03-31T10:38:05;99638.69;;;32.33;26.46
28628;BME280;15815;46.760;19.604;2023-03-31T10:40:36;99632.63;;;31.32;26.94
28628;BME280;15815;46.760;19.604;2023-03-31T10:43:29;99620.13;;;31.87;27.42
28628;BME280;15815;46.760;19.604;2023-03-31T10:46:00;99594.06;;;32.31;26.76
28628;BME280;15815;46.760;19.604;2023-03-31T10:48:36;99596.56;;;32.26;26.80
28628;BME280;15815;46.760;19.604;2023-03-31T10:51:51;99624.78;;;32.98;27.69
28628;BME280;15815;46.760;19.604;2023-03-31T10:54:17;99595.13;;;33.23;26.74
28628;BME280;15815;46.760;19.604;2023-03-31T11:00:10;99593.66;;;31.98;27.23
28628;BME280;15815;46.760;19.604;2023-03-31T11:02:57;99604.69;;;31.09;28.81
28628;BME280;15815;46.760;19.604;2023-03-31T11:05:38;99593.19;;;31.37;28.41
28628;BME280;15815;46.760;19.604;2023-03-31T11:13:53;99577.63;;;28.38;32.06
28628;BME280;15815;46.760;19.604;2023-03-31T11:17:04;99576.59;;;29.24;30.65
28628;BME280;15815;46.760;19.604;2023-03-31T11:28:15;99572.00;;;27.29;34.95
28628;BME280;15815;46.760;19.604;2023-03-31T11:41:49;99545.41;;;26.41;33.82
28628;BME280;15815;46.760;19.604;2023-03-31T11:44:18;99532.97;;;26.10;34.74
28628;BME280;15815;46.760;19.604;2023-03-31T11:49:40;99517.78;;;26.57;34.98
28628;BME280;15815;46.760;19.604;2023-03-31T11:52:38;99526.84;;;26.36;35.12
28628;BME280;15815;46.760;19.604;2023-03-31T11:55:13;99508.97;;;25.91;35.40
28628;BME280;15815;46.760;19.604;2023-03-31T11:58:04;99499.75;;;26.04;36.58
28628;BME280;15815;46.760;19.604;2023-03-31T12:00:40;99482.13;;;26.18;36.08
28628;BME280;15815;46.760;19.604;2023-03-31T12:03:15;99471.19;;;26.11;34.49
28628;BME280;15815;46.760;19.604;2023-03-31T12:05:49;99493.16;;;26.14;35.73
28628;BME280;15815;46.760;19.604;2023-03-31T12:08:30;99480.94;;;25.97;35.95
28628;BME280;15815;46.760;19.604;2023-03-31T12:11:10;99454.50;;;25.99;35.09
28628;BME280;15815;46.760;19.604;2023-03-31T12:16:42;99456.44;;;25.74;36.26
28628;BME280;15815;46.760;19.604;2023-03-31T12:19:14;99457.84;;;25.50;36.00
28628;BME280;15815;46.760;19.604;2023-03-31T12:21:47;99420.84;;;24.96;36.30
28628;BME280;15815;46.760;19.604;2023-03-31T12:24:14;99412.50;;;24.82;37.05
28628;BME280;15815;46.760;19.604;2023-03-31T12:29:29;99405.78;;;25.54;36.75
28628;BME280;15815;46.760;19.604;2023-03-31T12:31:58;99397.44;;;25.50;36.08
28628;BME280;15815;46.760;19.604;2023-03-31T12:34:26;99432.63;;;25.04;35.59
28628;BME280;15815;46.760;19.604;2023-03-31T12:37:55;99442.81;;;24.77;36.17
28628;BME280;15815;46.760;19.604;2023-03-31T12:54:51;99401.78;;;24.82;37.12
28628;BME280;15815;46.760;19.604;2023-03-31T12:57:23;99391.88;;;24.83;37.00
28628;BME280;15815;46.760;19.604;2023-03-31T13:02:32;99362.94;;;24.37;35.68
28628;BME280;15815;46.760;19.604;2023-03-31T13:04:58;99379.88;;;24.23;35.80
28628;BME280;15815;46.760;19.604;2023-03-31T13:09:56;99334.75;;;24.18;36.66
28628;BME280;15815;46.760;19.604;2023-03-31T13:12:24;99354.59;;;24.33;37.11
28628;BME280;15815;46.760;19.604;2023-03-31T13:14:51;99353.03;;;24.43;37.25
28628;BME280;15815;46.760;19.604;2023-03-31T13:19:49;99361.06;;;24.00;37.05
28628;BME280;15815;46.760;19.604;2023-03-31T13:22:35;99356.59;;;23.77;38.11
28628;BME280;15815;46.760;19.604;2023-03-31T13:33:18;99336.78;;;23.67;37.48
28628;BME280;15815;46.760;19.604;2023-03-31T13:35:49;99325.72;;;23.38;37.26
28628;BME280;15815;46.760;19.604;2023-03-31T13:44:21;99334.44;;;23.66;38.33
28628;BME280;15815;46.760;19.604;2023-03-31T13:55:21;99312.84;;;23.05;39.10
28628;BME280;15815;46.760;19.604;2023-03-31T14:01:30;99269.94;;;22.68;40.12
28628;BME280;15815;46.760;19.604;2023-03-31T14:04:37;99288.16;;;22.71;39.42
28628;BME280;15815;46.760;19.604;2023-03-31T14:07:12;99256.41;;;22.69;39.59
28628;BME280;15815;46.760;19.604;2023-03-31T14:09:55;99239.47;;;22.71;39.24
28628;BME280;15815;46.760;19.604;2023-03-31T14:35:30;99244.56;;;22.44;40.88
28628;BME280;15815;46.760;19.604;2023-03-31T14:37:59;99234.88;;;22.31;40.68
28628;BME280;15815;46.760;19.604;2023-03-31T14:40:27;99220.97;;;22.18;40.28
28628;BME280;15815;46.760;19.604;2023-03-31T14:43:01;99195.34;;;21.98;40.81
28628;BME280;15815;46.760;19.604;2023-03-31T14:46:04;99204.97;;;21.95;40.65
28628;BME280;15815;46.760;19.604;2023-03-31T14:52:18;99192.75;;;22.00;41.33
28628;BME280;15815;46.760;19.604;2023-03-31T14:54:58;99183.38;;;21.94;41.10
28628;BME280;15815;46.760;19.604;2023-03-31T14:57:47;99169.06;;;21.94;40.39
28628;BME280;15815;46.760;19.604;2023-03-31T15:05:55;99202.22;;;22.60;40.67
28628;BME280;15815;46.760;19.604;2023-03-31T15:14:05;99159.63;;;22.19;40.60
28628;BME280;15815;46.760;19.604;2023-03-31T15:16:44;99181.22;;;22.20;40.14
28628;BME280;15815;46.760;19.604;2023-03-31T15:19:23;99176.22;;;21.78;40.39
28628;BME280;15815;46.760;19.604;2023-03-31T15:21:58;99159.22;;;21.63;40.79
28628;BME280;15815;46.760;19.604;2023-03-31T15:24:59;99145.41;;;21.24;40.41
28628;BME280;15815;46.760;19.604;2023-03-31T15:27:34;99165.69;;;21.26;40.33
28628;BME280;15815;46.760;19.604;2023-03-31T15:30:04;99148.66;;;21.12;41.10
28628;BME280;15815;46.760;19.604;2023-03-31T15:32:35;99170.50;;;21.15;40.79
28628;BME280;15815;46.760;19.604;2023-03-31T15:35:26;99128.28;;;21.04;41.21
28628;BME280;15815;46.760;19.604;2023-03-31T15:37:56;99132.84;;;21.16;40.97
28628;BME280;15815;46.760;19.604;2023-03-31T15:49:28;99124.63;;;20.72;42.43
28628;BME280;15815;46.760;19.604;2023-03-31T15:51:54;99159.16;;;20.74;42.45
28628;BME280;15815;46.760;19.604;2023-03-31T15:59:27;99149.69;;;20.42;43.87
28628;BME280;15815;46.760;19.604;2023-03-31T16:01:55;99131.50;;;20.19;44.36
28628;BME280;15815;46.760;19.604;2023-03-31T16:04:29;99148.66;;;20.25;44.43
28628;BME280;15815;46.760;19.604;2023-03-31T16:07:24;99164.72;;;20.22;44.26
28628;BME280;15815;46.760;19.604;2023-03-31T16:09:52;99172.50;;;20.22;45.10
28628;BME280;15815;46.760;19.604;2023-03-31T16:12:37;99132.19;;;19.94;45.27
28628;BME280;15815;46.760;19.604;2023-03-31T16:15:08;99162.59;;;20.17;45.35
28628;BME280;15815;46.760;19.604;2023-03-31T16:17:39;99152.53;;;20.01;45.60
28628;BME280;15815;46.760;19.604;2023-03-31T16:20:09;99160.63;;;19.88;44.96
28628;BME280;15815;46.760;19.604;2023-03-31T16:25:11;99160.56;;;19.68;44.10
28628;BME280;15815;46.760;19.604;2023-03-31T16:27:41;99143.53;;;19.53;44.36
28628;BME280;15815;46.760;19.604;2023-03-31T16:30:14;99142.13;;;19.49;44.63
28628;BME280;15815;46.760;19.604;2023-03-31T16:35:23;99121.91;;;19.17;45.73
28628;BME280;15815;46.760;19.604;2023-03-31T16:37:53;99142.13;;;19.34;45.93
28628;BME280;15815;46.760;19.604;2023-03-31T16:40:18;99117.91;;;19.09;46.46
28628;BME280;15815;46.760;19.604;2023-03-31T16:42:45;99137.13;;;19.14;46.77